Time;durP1;ratioP1;P1;durP2;ratioP2;P2;SDS_P1;SDS_P2;PMS_P1;PMS_P2;Temp;Humidity;BMP_temperature;BMP_pressure;BME280_temperature;BME280_humidity;BME280_pressure;Samples;Min_cycle;Max_cycle;Signal;HPM_P1;HPM_P2
2022/05/13 12:47:31;;;;;;;7.78;2.78;;;18.50;92.90;;;;;;5095216;27;20518;-81
2022/05/13 13:00:45;;;;;;;9.35;2.65;;;18.80;91.60;;;;;;5060153;27;20457;-54
2022/05/13 13:03:13;;;;;;;7.78;2.67;;;17.50;92.80;;;;;;5057174;28;20136;-49
2022/05/13 13:05:50;;;;;;;7.07;2.55;;;17.50;92.70;;;;;;5060683;28;20036;-52
2022/05/13 13:08:24;;;;;;;9.52;2.63;;;17.50;91.90;;;;;;5020834;27;20044;-50
2022/05/13 13:11:08;;;;;;;7.45;2.08;;;17.40;91.00;;;;;;5060375;28;20041;-50
2022/05/13 13:13:54;;;;;;;10.90;2.67;;;17.40;91.30;;;;;;5058779;28;20124;-53
2022/05/13 13:16:26;;;;;;;13.65;2.47;;;17.30;91.50;;;;;;5068944;28;20041;-55
2022/05/13 13:19:17;;;;;;;8.73;2.40;;;17.10;91.70;;;;;;5071098;28;20036;-46
2022/05/13 13:21:56;;;;;;;9.77;2.63;;;17.00;92.20;;;;;;5055930;28;20121;-49
2022/05/13 13:24:35;;;;;;;10.52;2.70;;;17.10;92.40;;;;;;5058151;28;20047;-49
2022/05/13 13:27:28;;;;;;;9.18;2.40;;;17.40;91.90;;;;;;5061335;28;20089;-47
2022/05/13 13:29:53;;;;;;;8.80;2.58;;;17.60;92.00;;;;;;5068252;28;20100;-49
2022/05/13 13:32:22;;;;;;;8.60;2.50;;;17.70;92.30;;;;;;5073998;28;20048;-46
2022/05/13 13:34:56;;;;;;;10.55;2.67;;;17.60;91.00;;;;;;5064514;28;20049;-50
2022/05/13 13:37:35;;;;;;;6.85;2.10;;;17.50;88.70;;;;;;5065484;28;20071;-47
2022/05/13 13:40:22;;;;;;;10.32;2.90;;;17.70;90.60;;;;;;5063911;28;20032;-46
2022/05/13 13:43:21;;;;;;;8.55;2.95;;;17.70;89.80;;;;;;5058474;28;20632;-44
2022/05/13 13:45:53;;;;;;;8.73;2.17;;;17.90;91.10;;;;;;5056613;28;20515;-47
2022/05/13 13:48:56;;;;;;;10.10;2.42;;;17.70;89.10;;;;;;5041819;28;20052;-47
2022/05/13 13:51:34;;;;;;;11.10;2.38;;;17.60;88.70;;;;;;5051038;28;20590;-50
2022/05/13 13:54:00;;;;;;;11.02;2.70;;;18.00;90.30;;;;;;5049395;28;20119;-47
2022/05/13 13:56:29;;;;;;;12.20;2.70;;;18.10;89.10;;;;;;5056627;28;20489;-46
2022/05/13 13:59:06;;;;;;;10.27;2.42;;;18.00;89.00;;;;;;5063372;28;20386;-49
2022/05/13 14:01:34;;;;;;;9.02;3.03;;;18.20;90.00;;;;;;5059063;28;20072;-44
2022/05/13 14:04:13;;;;;;;13.65;2.88;;;18.00;89.60;;;;;;5057311;28;20170;-48
2022/05/13 14:06:41;;;;;;;8.25;2.72;;;17.60;90.70;;;;;;5048000;28;20048;-48
2022/05/13 14:09:12;;;;;;;10.82;2.60;;;17.30;90.90;;;;;;5048569;28;20059;-47
2022/05/13 14:11:39;;;;;;;8.70;2.60;;;17.40;91.20;;;;;;5044718;28;20040;-48
2022/05/13 14:14:08;;;;;;;10.57;2.50;;;17.50;90.70;;;;;;5046694;28;20044;-46
2022/05/13 14:16:57;;;;;;;9.52;2.30;;;17.20;90.70;;;;;;5048245;28;20033;-46
2022/05/13 14:19:27;;;;;;;10.25;2.75;;;17.10;90.30;;;;;;5053056;28;20522;-46
2022/05/13 14:22:03;;;;;;;20.15;3.08;;;16.80;92.00;;;;;;5049033;28;20461;-44
2022/05/13 14:24:32;;;;;;;10.85;2.50;;;17.00;92.20;;;;;;5047469;28;20044;-49
2022/05/13 14:27:19;;;;;;;12.25;2.70;;;17.00;92.20;;;;;;5058282;28;20044;-45
2022/05/13 14:29:45;;;;;;;9.38;2.92;;;17.20;92.00;;;;;;5044579;28;20163;-45
2022/05/13 14:32:20;;;;;;;11.82;2.80;;;17.30;90.60;;;;;;5049703;28;20047;-44
2022/05/13 14:35:10;;;;;;;6.65;2.20;;;17.30;90.90;;;;;;5048745;28;20063;-45
2022/05/13 14:37:47;;;;;;;6.38;2.10;;;17.40;91.00;;;;;;5048467;28;20077;-47
2022/05/13 14:40:22;;;;;;;6.68;2.13;;;17.20;90.30;;;;;;5045331;28;20489;-44
2022/05/13 14:42:51;;;;;;;9.98;2.45;;;17.10;90.50;;;;;;5047021;28;20119;-49
2022/05/13 14:45:26;;;;;;;9.98;2.70;;;17.00;90.70;;;;;;5049425;28;20035;-46
2022/05/13 14:48:08;;;;;;;21.15;3.28;;;17.10;91.20;;;;;;5044314;28;20548;-48
2022/05/13 14:50:37;;;;;;;11.90;3.53;;;16.90;90.80;;;;;;5047270;28;20064;-45
2022/05/13 14:53:17;;;;;;;8.52;2.28;;;17.00;91.50;;;;;;5042556;28;20036;-46
2022/05/13 14:56:02;;;;;;;11.35;2.70;;;17.20;91.90;;;;;;5048022;28;20040;-47
2022/05/13 14:58:45;;;;;;;9.20;2.45;;;17.30;90.70;;;;;;5045529;28;20881;-45
2022/05/13 15:01:19;;;;;;;10.23;2.90;;;17.40;91.20;;;;;;5046173;28;20036;-45
2022/05/13 15:03:55;;;;;;;12.93;2.97;;;17.30;90.80;;;;;;5044109;28;20111;-43
2022/05/13 15:06:30;;;;;;;11.02;3.17;;;17.00;90.00;;;;;;5054969;28;20075;-48
2022/05/13 15:09:28;;;;;;;11.68;3.22;;;17.00;90.60;;;;;;5048263;28;20059;-45
2022/05/13 15:12:06;;;;;;;8.27;2.30;;;16.90;90.20;;;;;;5050195;28;20047;-45
2022/05/13 15:14:33;;;;;;;12.63;3.08;;;16.90;89.80;;;;;;5050076;28;20044;-44
2022/05/13 15:17:02;;;;;;;10.15;2.92;;;17.00;90.00;;;;;;5043495;28;20644;-47
2022/05/13 15:19:29;;;;;;;10.07;2.50;;;17.00;89.60;;;;;;5049987;28;20544;-46
2022/05/13 15:21:56;;;;;;;9.23;2.50;;;17.00;90.10;;;;;;5049261;28;20871;-47
2022/05/13 15:24:25;;;;;;;11.00;2.97;;;17.00;90.20;;;;;;5041655;28;20052;-48
2022/05/13 15:26:52;;;;;;;9.23;2.45;;;17.00;90.00;;;;;;5046870;28;20040;-44
2022/05/13 15:29:18;;;;;;;14.63;2.80;;;17.10;89.20;;;;;;5048255;28;20045;-45
2022/05/13 15:31:45;;;;;;;6.57;2.60;;;16.90;89.70;;;;;;5043543;28;20043;-47
2022/05/13 15:34:11;;;;;;;7.25;2.28;;;16.80;90.00;;;;;;5046080;28;20060;-45
2022/05/13 15:36:43;;;;;;;10.15;2.70;;;16.80;90.30;;;;;;5039876;28;20117;-45
2022/05/13 15:39:21;;;;;;;10.48;2.90;;;16.90;90.00;;;;;;5040330;28;20570;-43
2022/05/13 15:41:47;;;;;;;8.20;2.22;;;17.00;90.00;;;;;;5036379;28;20397;-44
2022/05/13 15:44:13;;;;;;;9.27;2.72;;;17.10;90.20;;;;;;5046928;28;20047;-47
2022/05/13 15:46:39;;;;;;;6.20;2.10;;;17.10;88.70;;;;;;5043490;28;20041;-47
2022/05/13 15:54:46;;;;;;;6.05;2.13;;;16.90;90.00;;;;;;5050029;28;20055;-42
2022/05/13 15:57:12;;;;;;;5.82;2.10;;;16.60;89.00;;;;;;5051380;28;20047;-49
2022/05/13 15:59:37;;;;;;;9.85;2.72;;;16.40;88.80;;;;;;5041420;28;20048;-48
2022/05/13 16:02:04;;;;;;;8.10;2.60;;;16.50;90.10;;;;;;5052669;28;20550;-46
2022/05/13 16:04:29;;;;;;;10.27;2.88;;;16.60;90.30;;;;;;5044392;28;20081;-46
2022/05/13 16:06:55;;;;;;;14.60;3.03;;;16.70;90.40;;;;;;5049181;28;20056;-44
2022/05/13 16:09:21;;;;;;;11.65;3.33;;;16.70;90.50;;;;;;5047558;28;20055;-44
2022/05/13 16:11:49;;;;;;;13.30;3.05;;;16.60;90.70;;;;;;5041700;28;20044;-47
2022/05/13 16:14:17;;;;;;;12.18;3.05;;;16.60;90.60;;;;;;5048531;28;20505;-44
2022/05/13 16:17:07;;;;;;;14.07;3.35;;;16.70;90.80;;;;;;5046451;28;20281;-43
2022/05/13 16:19:33;;;;;;;10.80;3.00;;;16.50;91.40;;;;;;5047067;28;20408;-45
2022/05/13 16:22:11;;;;;;;11.13;3.50;;;16.50;91.70;;;;;;5052651;28;20044;-44
2022/05/13 16:24:38;;;;;;;13.40;3.08;;;16.60;91.90;;;;;;5047125;28;20282;-46
2022/05/13 16:27:11;;;;;;;12.35;2.90;;;16.60;91.80;;;;;;5054480;28;20128;-44
2022/05/13 16:29:41;;;;;;;12.32;3.85;;;16.70;92.10;;;;;;5055886;28;20094;-44
2022/05/13 16:32:07;;;;;;;11.57;3.35;;;16.70;92.50;;;;;;5046288;28;20033;-46
2022/05/13 16:34:42;;;;;;;11.13;3.15;;;16.70;92.70;;;;;;5047821;28;20032;-45
2022/05/13 16:39:52;;;;;;;12.35;3.35;;;16.30;92.80;;;;;;5043430;28;20144;-47
2022/05/13 16:42:18;;;;;;;13.15;3.50;;;16.30;92.80;;;;;;5042236;28;20698;-44
2022/05/13 16:44:44;;;;;;;14.18;3.38;;;16.30;93.00;;;;;;5041508;28;20041;-45
2022/05/13 16:47:10;;;;;;;14.02;4.60;;;16.40;93.20;;;;;;5039726;28;20043;-43
2022/05/13 16:49:37;;;;;;;12.52;3.80;;;16.30;92.90;;;;;;5037740;28;20045;-43
2022/05/13 16:52:03;;;;;;;13.77;4.15;;;16.40;93.30;;;;;;5045531;28;20479;-46
2022/05/13 16:54:28;;;;;;;11.60;2.88;;;16.40;92.80;;;;;;5051381;28;20064;-47
2022/05/13 16:56:55;;;;;;;10.10;3.28;;;16.40;93.00;;;;;;5045822;28;20033;-43
2022/05/13 16:59:20;;;;;;;11.18;3.03;;;16.50;92.80;;;;;;5043653;28;20044;-45
2022/05/13 17:01:47;;;;;;;12.95;3.25;;;16.50;92.60;;;;;;5047429;28;20040;-45
2022/05/13 17:04:13;;;;;;;13.77;4.78;;;16.30;92.90;;;;;;5046359;28;20040;-44
2022/05/13 17:06:40;;;;;;;10.40;3.47;;;16.30;93.60;;;;;;5047157;28;20455;-45
2022/05/13 17:17:20;;;;;;;10.07;3.33;;;16.30;94.00;;;;;;5042022;28;20700;-44
2022/05/13 17:19:46;;;;;;;7.00;3.08;;;16.20;94.20;;;;;;5046331;28;20043;-48
2022/05/13 17:22:12;;;;;;;15.07;4.10;;;16.20;94.70;;;;;;5037730;28;20072;-44
2022/05/13 17:24:44;;;;;;;8.07;4.05;;;16.30;94.50;;;;;;5032459;28;20097;-46
2022/05/13 17:27:30;;;;;;;13.63;3.65;;;16.20;94.60;;;;;;5035233;28;20137;-46
2022/05/13 17:29:57;;;;;;;11.20;4.00;;;16.30;94.50;;;;;;5031420;28;20128;-44
2022/05/13 17:32:26;;;;;;;15.95;4.57;;;16.30;94.50;;;;;;5034131;28;20040;-48
2022/05/13 17:34:55;;;;;;;13.40;4.18;;;16.10;94.70;;;;;;5033697;28;20047;-46
2022/05/13 17:49:21;;;;;;;14.35;5.60;;;16.00;96.60;;;;;;5050198;28;20052;-49
2022/05/13 17:59:24;;;;;;;12.75;4.70;;;16.10;97.00;;;;;;5057360;28;20094;-48
2022/05/13 18:02:03;;;;;;;12.73;4.85;;;16.10;96.80;;;;;;5059540;28;20128;-44
2022/05/13 18:04:30;;;;;;;12.25;4.90;;;16.10;96.60;;;;;;5061011;28;20129;-46
2022/05/13 18:06:56;;;;;;;11.70;4.60;;;15.90;96.60;;;;;;5040493;28;20060;-47
2022/05/13 18:09:22;;;;;;;12.13;4.65;;;16.00;96.90;;;;;;5047829;28;20122;-48
2022/05/13 18:11:48;;;;;;;14.00;4.82;;;16.00;97.00;;;;;;5051127;28;20080;-43
2022/05/13 18:14:14;;;;;;;12.15;5.07;;;16.00;97.00;;;;;;5049938;28;20041;-48
2022/05/13 18:16:39;;;;;;;15.23;4.88;;;15.90;97.30;;;;;;5072230;28;20045;-46
2022/05/13 18:19:05;;;;;;;11.32;5.07;;;15.90;97.30;;;;;;5053707;28;20072;-44
2022/05/13 18:21:31;;;;;;;13.75;5.53;;;15.80;97.60;;;;;;5056389;28;20098;-44
2022/05/13 18:23:57;;;;;;;12.70;5.13;;;15.80;97.90;;;;;;5051150;28;20044;-45
2022/05/13 18:26:23;;;;;;;12.23;4.88;;;15.80;98.10;;;;;;5065233;28;20045;-44
2022/05/13 18:28:50;;;;;;;14.15;4.70;;;15.70;98.30;;;;;;5062054;28;20064;-46
2022/05/13 18:31:16;;;;;;;14.32;5.53;;;15.70;98.60;;;;;;5063112;28;20123;-45
2022/05/13 18:33:42;;;;;;;10.55;4.85;;;15.70;98.70;;;;;;5057876;28;20036;-48
2022/05/13 18:36:08;;;;;;;13.80;6.25;;;15.60;98.80;;;;;;5069809;28;20518;-46
2022/05/13 18:38:37;;;;;;;17.20;5.15;;;15.60;98.90;;;;;;5066834;28;20484;-43
2022/05/13 18:46:36;;;;;;;11.88;5.22;;;15.40;99.30;;;;;;5061678;28;20049;-47
2022/05/13 18:49:04;;;;;;;10.45;3.85;;;15.40;99.50;;;;;;5049244;28;20401;-47
2022/05/13 18:51:30;;;;;;;12.55;4.90;;;15.40;99.70;;;;;;5058624;28;20044;-44
2022/05/13 18:53:56;;;;;;;14.38;4.45;;;15.30;99.90;;;;;;5053781;28;20492;-43
2022/05/13 18:56:27;;;;;;;10.27;4.10;;;15.20;99.90;;;;;;5052272;28;20413;-46
2022/05/13 18:58:54;;;;;;;11.85;4.70;;;15.20;99.90;;;;;;5063686;28;20040;-44
2022/05/13 19:01:19;;;;;;;13.18;4.95;;;15.20;99.90;;;;;;5055469;28;20124;-47
2022/05/13 19:03:46;;;;;;;13.55;4.88;;;15.10;99.90;;;;;;5062214;28;20135;-47
2022/05/13 19:06:13;;;;;;;14.50;4.40;;;15.10;99.90;;;;;;5050388;28;20526;-46
2022/05/13 19:08:42;;;;;;;14.10;5.50;;;15.00;99.90;;;;;;5053314;28;20409;-45
2022/05/13 19:11:08;;;;;;;11.20;5.00;;;15.00;99.90;;;;;;5060160;28;20040;-47
2022/05/13 19:13:36;;;;;;;11.18;4.70;;;14.90;99.90;;;;;;5060579;28;20047;-49
2022/05/13 19:16:03;;;;;;;11.82;4.80;;;14.90;99.90;;;;;;5065980;28;20102;-46
2022/05/13 19:18:31;;;;;;;10.63;4.50;;;14.90;99.90;;;;;;5047514;28;20052;-44
2022/05/13 19:20:57;;;;;;;13.15;5.18;;;14.80;99.90;;;;;;5053568;28;20539;-45
2022/05/13 19:23:23;;;;;;;13.07;4.80;;;14.80;99.90;;;;;;5055142;28;20439;-44
2022/05/13 19:25:55;;;;;;;10.70;5.00;;;14.80;99.90;;;;;;5059420;28;20085;-43
2022/05/13 19:28:21;;;;;;;13.90;4.65;;;14.80;99.90;;;;;;5051238;28;20080;-46
2022/05/13 19:30:47;;;;;;;11.60;4.80;;;14.70;99.90;;;;;;5059275;28;20079;-49
2022/05/13 19:33:14;;;;;;;9.13;3.85;;;14.70;99.90;;;;;;5040110;28;20068;-47
2022/05/13 19:35:42;;;;;;;16.98;5.07;;;14.60;99.90;;;;;;5060647;28;20047;-46
2022/05/13 19:38:09;;;;;;;20.05;5.30;;;14.60;99.90;;;;;;5058075;28;20040;-47
2022/05/13 19:40:38;;;;;;;13.60;5.93;;;14.60;99.90;;;;;;5058025;28;20187;-45
2022/05/13 19:43:05;;;;;;;8.98;4.82;;;14.60;99.90;;;;;;5056637;28;20045;-47
2022/05/13 19:45:31;;;;;;;12.85;4.85;;;14.50;99.90;;;;;;5050364;28;20508;-44
2022/05/13 19:47:57;;;;;;;12.15;4.78;;;14.50;99.90;;;;;;5059898;28;20039;-42
2022/05/13 19:50:25;;;;;;;15.02;5.00;;;14.50;99.90;;;;;;5057104;28;21415;-45
2022/05/13 19:52:51;;;;;;;10.73;5.30;;;14.50;99.90;;;;;;5057785;28;20056;-47
2022/05/13 19:55:19;;;;;;;11.48;4.43;;;14.40;99.90;;;;;;5051213;28;20216;-48
2022/05/13 19:57:45;;;;;;;15.63;4.97;;;14.40;99.90;;;;;;5066805;28;20107;-47
2022/05/13 20:00:17;;;;;;;16.45;4.95;;;14.40;99.90;;;;;;5056663;28;20063;-48
2022/05/13 20:02:43;;;;;;;14.00;5.18;;;14.40;99.90;;;;;;5061607;28;20032;-43
2022/05/13 20:10:41;;;;;;;14.75;4.93;;;14.20;99.90;;;;;;5063887;28;20420;-45
2022/05/13 20:13:18;;;;;;;15.23;5.05;;;14.30;99.90;;;;;;5065479;28;20078;-45
2022/05/13 20:15:47;;;;;;;13.05;5.28;;;14.20;99.90;;;;;;5030657;28;20674;-47
2022/05/13 20:18:15;;;;;;;14.38;4.82;;;14.20;99.90;;;;;;5058645;28;20033;-44
2022/05/13 20:23:27;;;;;;;19.20;6.47;;;14.20;99.90;;;;;;5052462;28;20041;-47
2022/05/13 20:25:54;;;;;;;15.00;5.22;;;14.20;99.90;;;;;;5056762;28;20040;-46
2022/05/13 20:28:20;;;;;;;18.58;5.43;;;14.20;99.90;;;;;;5057957;28;20036;-43
2022/05/13 20:30:48;;;;;;;12.93;5.63;;;14.20;99.90;;;;;;5034855;28;20044;-47
2022/05/13 20:33:14;;;;;;;12.55;5.05;;;14.20;99.90;;;;;;5056976;28;20363;-47
2022/05/13 20:35:43;;;;;;;23.63;5.68;;;14.20;99.90;;;;;;5062751;28;20037;-45
2022/05/13 20:38:11;;;;;;;14.85;5.53;;;14.20;99.90;;;;;;5065588;28;20047;-44
2022/05/13 20:40:39;;;;;;;22.35;6.22;;;14.10;99.90;;;;;;5067567;28;20094;-44
2022/05/13 20:43:05;;;;;;;13.82;5.70;;;14.10;99.90;;;;;;5059965;28;20064;-50
2022/05/13 20:45:31;;;;;;;12.25;5.55;;;14.10;99.90;;;;;;5055293;28;20456;-43
2022/05/13 20:47:57;;;;;;;13.63;5.53;;;14.10;99.90;;;;;;5049032;28;20037;-43
2022/05/13 20:50:25;;;;;;;18.75;5.00;;;14.10;99.90;;;;;;5060153;28;20431;-43
2022/05/13 20:52:50;;;;;;;19.10;5.70;;;14.00;99.90;;;;;;5057544;28;20048;-46
2022/05/13 20:55:19;;;;;;;16.02;6.45;;;14.00;99.90;;;;;;5053422;28;20549;-44
2022/05/13 20:57:46;;;;;;;16.13;5.78;;;14.00;99.90;;;;;;5049967;28;20041;-43
2022/05/13 21:00:14;;;;;;;19.65;6.03;;;14.00;99.90;;;;;;5043444;28;20065;-44
2022/05/13 21:02:40;;;;;;;18.48;5.35;;;14.00;99.90;;;;;;5036475;28;20163;-45
2022/05/13 21:05:07;;;;;;;13.52;5.53;;;13.90;99.90;;;;;;5040102;28;20602;-43
2022/05/13 21:07:35;;;;;;;16.98;5.10;;;14.00;99.90;;;;;;5042546;28;20198;-43
2022/05/13 21:10:03;;;;;;;13.93;5.60;;;13.90;99.90;;;;;;5052603;28;20087;-43
2022/05/13 21:12:28;;;;;;;12.32;4.70;;;13.90;99.90;;;;;;5033145;28;20079;-46
2022/05/13 21:14:54;;;;;;;15.38;4.75;;;13.90;99.90;;;;;;5048395;28;20066;-44
2022/05/13 21:17:22;;;;;;;13.80;4.75;;;13.90;99.90;;;;;;5049619;28;20497;-44
2022/05/13 21:19:49;;;;;;;20.33;5.63;;;13.90;99.90;;;;;;5037701;28;20040;-48
2022/05/13 21:22:15;;;;;;;16.80;4.93;;;13.90;99.90;;;;;;5043235;28;20164;-46
2022/05/13 21:24:42;;;;;;;15.13;4.63;;;13.90;99.90;;;;;;5048811;28;20036;-45
2022/05/13 21:27:08;;;;;;;12.90;4.00;;;13.80;99.90;;;;;;5046079;28;20489;-44
2022/05/13 21:29:36;;;;;;;13.75;4.22;;;13.80;99.90;;;;;;5050152;28;20056;-44
2022/05/13 21:37:32;;;;;;;19.98;5.65;;;13.70;99.90;;;;;;5046376;28;20493;-44
2022/05/13 21:40:00;;;;;;;16.05;5.65;;;13.70;99.90;;;;;;5062770;28;20047;-43
2022/05/13 21:42:27;;;;;;;15.07;5.55;;;13.70;99.90;;;;;;5046087;28;20036;-42
2022/05/13 21:44:52;;;;;;;12.13;4.38;;;13.70;99.90;;;;;;5045807;28;20397;-48
2022/05/13 21:47:19;;;;;;;14.25;4.05;;;13.70;99.90;;;;;;5031569;28;20333;-44
2022/05/13 21:49:45;;;;;;;16.88;4.45;;;13.70;99.90;;;;;;5059372;28;20069;-44
2022/05/13 21:52:11;;;;;;;15.45;4.90;;;13.70;99.90;;;;;;5052260;28;20523;-44
2022/05/13 21:54:42;;;;;;;13.90;3.95;;;13.60;99.90;;;;;;5055155;28;20484;-43
2022/05/13 21:57:10;;;;;;;19.85;4.68;;;13.60;99.90;;;;;;5051277;28;20053;-49
2022/05/13 21:59:36;;;;;;;16.98;4.75;;;13.60;99.90;;;;;;5056851;28;20091;-44
2022/05/13 22:02:06;;;;;;;18.13;6.00;;;13.60;99.90;;;;;;5053962;28;20508;-48
2022/05/13 22:04:32;;;;;;;16.42;4.53;;;13.60;99.90;;;;;;5055441;28;20037;-46
2022/05/13 22:06:59;;;;;;;14.75;4.43;;;13.60;99.90;;;;;;5053250;28;20073;-43
2022/05/13 22:09:25;;;;;;;14.77;4.13;;;13.60;99.90;;;;;;5056157;28;20041;-46
2022/05/13 22:11:51;;;;;;;16.67;4.95;;;13.60;99.90;;;;;;5049017;28;20044;-46
2022/05/13 22:14:18;;;;;;;14.77;4.55;;;13.60;99.90;;;;;;5049787;28;20047;-47
2022/05/13 22:16:46;;;;;;;16.60;4.80;;;13.60;99.90;;;;;;5052923;28;20032;-47
2022/05/13 22:19:12;;;;;;;14.48;3.95;;;13.60;99.90;;;;;;5052397;28;20044;-46
2022/05/13 22:21:39;;;;;;;20.13;5.78;;;13.60;99.90;;;;;;5055901;28;20063;-45
2022/05/13 22:24:05;;;;;;;17.23;5.18;;;13.60;99.90;;;;;;5045679;28;20055;-45
2022/05/13 22:26:34;;;;;;;15.80;4.63;;;13.60;99.90;;;;;;5047776;28;20045;-44
2022/05/13 22:29:05;;;;;;;15.15;4.93;;;13.60;99.90;;;;;;5056029;28;20059;-43
2022/05/13 22:31:31;;;;;;;16.13;4.95;;;13.60;99.90;;;;;;5052111;28;20037;-44
2022/05/13 22:33:58;;;;;;;19.92;4.90;;;13.60;99.90;;;;;;5056757;28;20055;-44
2022/05/13 22:36:24;;;;;;;17.23;4.88;;;13.60;99.90;;;;;;5048421;28;20102;-46
2022/05/13 22:38:50;;;;;;;22.77;4.88;;;13.60;99.90;;;;;;5036435;28;20404;-44
2022/05/13 22:41:16;;;;;;;14.68;4.68;;;13.60;99.90;;;;;;5040731;28;20045;-44
2022/05/13 22:43:42;;;;;;;16.20;4.93;;;13.60;99.90;;;;;;5037335;28;20041;-46
2022/05/13 22:46:07;;;;;;;18.67;5.18;;;13.60;99.90;;;;;;5039807;28;20415;-45
2022/05/13 22:48:35;;;;;;;18.75;4.38;;;13.60;99.90;;;;;;5039942;28;20049;-45
2022/05/13 22:51:02;;;;;;;19.45;5.07;;;13.60;99.90;;;;;;5051264;28;20119;-45
2022/05/13 22:53:28;;;;;;;17.25;4.65;;;13.60;99.90;;;;;;5050508;28;20159;-47
2022/05/13 22:55:55;;;;;;;16.92;4.80;;;13.60;99.90;;;;;;5046805;28;20044;-48
2022/05/13 22:58:23;;;;;;;24.15;5.60;;;13.60;99.90;;;;;;5041752;28;20032;-42
2022/05/13 23:00:49;;;;;;;20.35;5.53;;;13.60;99.90;;;;;;5037857;28;20103;-46
2022/05/13 23:03:15;;;;;;;18.55;4.97;;;13.60;99.90;;;;;;5040114;28;20611;-47
2022/05/13 23:11:16;;;;;;;16.58;5.45;;;13.60;99.90;;;;;;5043195;28;20040;-44
2022/05/13 23:13:47;;;;;;;20.92;5.15;;;13.60;99.90;;;;;;5051627;28;20110;-44
2022/05/13 23:16:15;;;;;;;23.35;4.72;;;13.50;99.90;;;;;;5051076;28;20037;-47
2022/05/13 23:18:41;;;;;;;22.80;6.15;;;13.50;99.90;;;;;;5055076;28;20120;-45
2022/05/13 23:21:07;;;;;;;15.35;5.10;;;13.50;99.90;;;;;;5050393;28;20567;-46
2022/05/13 23:23:34;;;;;;;21.42;4.70;;;13.50;99.90;;;;;;5054549;28;20087;-45
2022/05/13 23:26:01;;;;;;;18.45;4.65;;;13.50;99.90;;;;;;5053200;28;20036;-47
2022/05/13 23:28:27;;;;;;;19.02;4.65;;;13.50;99.90;;;;;;5054445;28;20047;-45
2022/05/13 23:30:53;;;;;;;23.08;5.78;;;13.50;99.90;;;;;;5052414;28;20037;-47
2022/05/13 23:33:20;;;;;;;21.67;6.25;;;13.50;99.90;;;;;;5051309;28;20048;-44
2022/05/13 23:35:46;;;;;;;17.17;5.70;;;13.40;99.90;;;;;;5053862;28;20044;-45
2022/05/13 23:38:14;;;;;;;22.77;5.18;;;13.40;99.90;;;;;;5054506;28;20439;-45
2022/05/13 23:40:41;;;;;;;17.35;5.18;;;13.50;99.90;;;;;;5057562;28;20568;-44
2022/05/13 23:43:07;;;;;;;24.42;6.22;;;13.40;99.90;;;;;;5054528;28;20129;-45
2022/05/13 23:45:33;;;;;;;20.45;6.32;;;13.40;99.90;;;;;;5052173;28;20051;-44
2022/05/13 23:47:59;;;;;;;17.67;5.90;;;13.50;99.90;;;;;;5055351;28;20033;-44
2022/05/13 23:50:26;;;;;;;20.52;5.03;;;13.40;99.90;;;;;;5065105;28;20051;-42
2022/05/13 23:58:21;;;;;;;20.60;6.20;;;13.40;99.90;;;;;;5052209;28;20037;-45
